Arima, Trinidad and Tobago
Current Conditions -  °F | °C
As of 1:00 AM on Tuesday 27 Jan 2015 (Local Time) from TTPP Reporting Station
Rain Showers Rain Showers  
Wind Chill: 75°   Ceiling: 1600
Heat Index: 75°   Visibility: 6mi
Dew Point: 72°   Wind: 8mph
Humidity: 89%   Direction: 110°ESE
Pressure: 29.91"   Gusts: NA
Location:  10.64°N, 61.28°W
Report Text: TTPP 270500Z 11007KT 9999 -SHRA BKN016 24/22 Q1013 NOSIG
Loading
Personal Weather Stations






























Interactive Weather Map New forecast layout! Learn more

10-Day Weather Forecast

Advertisements
Track Severe Weather on mobile